sensor_id;sensor_type;location;lat;lon;timestamp;P1;durP1;ratioP1;P2;durP2;ratioP2
72325;SDS011;60278;47.980;18.780;2022-10-31T00:01:22;28.17;;;10.70;;
72325;SDS011;60278;47.980;18.780;2022-10-31T00:04:58;27.30;;;12.15;;
72325;SDS011;60278;47.980;18.780;2022-10-31T00:08:29;24.17;;;10.73;;
72325;SDS011;60278;47.980;18.780;2022-10-31T00:12:00;30.00;;;11.00;;
72325;SDS011;60278;47.980;18.780;2022-10-31T00:15:35;22.70;;;10.45;;
72325;SDS011;60278;47.980;18.780;2022-10-31T00:19:10;22.37;;;10.07;;
72325;SDS011;60278;47.980;18.780;2022-10-31T00:22:41;27.23;;;12.23;;
72325;SDS011;60278;47.980;18.780;2022-10-31T00:26:12;26.35;;;10.95;;
72325;SDS011;60278;47.980;18.780;2022-10-31T00:29:43;20.13;;;10.10;;
72325;SDS011;60278;47.980;18.780;2022-10-31T00:33:14;25.80;;;11.47;;
72325;SDS011;60278;47.980;18.780;2022-10-31T00:36:45;24.33;;;9.77;;
72325;SDS011;60278;47.980;18.780;2022-10-31T00:40:17;22.95;;;10.38;;
72325;SDS011;60278;47.980;18.780;2022-10-31T00:43:48;28.17;;;10.73;;
72325;SDS011;60278;47.980;18.780;2022-10-31T00:47:19;25.80;;;10.35;;
72325;SDS011;60278;47.980;18.780;2022-10-31T00:50:51;25.45;;;10.63;;
72325;SDS011;60278;47.980;18.780;2022-10-31T00:54:22;26.83;;;11.27;;
72325;SDS011;60278;47.980;18.780;2022-10-31T00:57:53;23.88;;;10.10;;
72325;SDS011;60278;47.980;18.780;2022-10-31T01:01:25;30.08;;;11.57;;
72325;SDS011;60278;47.980;18.780;2022-10-31T01:04:56;21.67;;;9.88;;
72325;SDS011;60278;47.980;18.780;2022-10-31T01:08:27;22.13;;;10.80;;
72325;SDS011;60278;47.980;18.780;2022-10-31T01:11:59;22.75;;;9.25;;
72325;SDS011;60278;47.980;18.780;2022-10-31T01:15:30;20.88;;;9.30;;
72325;SDS011;60278;47.980;18.780;2022-10-31T01:19:00;22.33;;;9.53;;
72325;SDS011;60278;47.980;18.780;2022-10-31T01:22:32;21.55;;;9.43;;
72325;SDS011;60278;47.980;18.780;2022-10-31T01:29:43;21.00;;;9.47;;
72325;SDS011;60278;47.980;18.780;2022-10-31T01:33:14;21.67;;;8.82;;
72325;SDS011;60278;47.980;18.780;2022-10-31T01:36:46;20.23;;;8.63;;
72325;SDS011;60278;47.980;18.780;2022-10-31T01:40:21;22.17;;;9.50;;
72325;SDS011;60278;47.980;18.780;2022-10-31T01:43:53;26.30;;;9.80;;
72325;SDS011;60278;47.980;18.780;2022-10-31T01:47:30;24.10;;;9.95;;
72325;SDS011;60278;47.980;18.780;2022-10-31T01:51:11;22.60;;;10.02;;
72325;SDS011;60278;47.980;18.780;2022-10-31T01:54:49;22.47;;;8.87;;
72325;SDS011;60278;47.980;18.780;2022-10-31T01:58:30;21.73;;;9.85;;
72325;SDS011;60278;47.980;18.780;2022-10-31T02:02:02;22.77;;;9.93;;
72325;SDS011;60278;47.980;18.780;2022-10-31T02:05:33;22.70;;;9.90;;
72325;SDS011;60278;47.980;18.780;2022-10-31T02:09:05;16.77;;;8.07;;
72325;SDS011;60278;47.980;18.780;2022-10-31T02:12:36;20.52;;;9.27;;
72325;SDS011;60278;47.980;18.780;2022-10-31T02:16:08;18.98;;;8.65;;
72325;SDS011;60278;47.980;18.780;2022-10-31T02:31:19;16.13;;;8.20;;
72325;SDS011;60278;47.980;18.780;2022-10-31T02:35:11;17.85;;;8.48;;
72325;SDS011;60278;47.980;18.780;2022-10-31T02:46:48;19.23;;;7.75;;
72325;SDS011;60278;47.980;18.780;2022-10-31T02:50:30;15.32;;;7.43;;
72325;SDS011;60278;47.980;18.780;2022-10-31T02:54:05;15.48;;;7.20;;
72325;SDS011;60278;47.980;18.780;2022-10-31T02:57:36;15.47;;;7.03;;
72325;SDS011;60278;47.980;18.780;2022-10-31T03:12:40;16.60;;;7.13;;
72325;SDS011;60278;47.980;18.780;2022-10-31T03:16:17;15.73;;;6.75;;
72325;SDS011;60278;47.980;18.780;2022-10-31T03:20:06;17.43;;;8.33;;
72325;SDS011;60278;47.980;18.780;2022-10-31T03:23:41;16.05;;;7.03;;
72325;SDS011;60278;47.980;18.780;2022-10-31T03:27:26;17.27;;;7.38;;
72325;SDS011;60278;47.980;18.780;2022-10-31T03:31:00;16.67;;;7.53;;
72325;SDS011;60278;47.980;18.780;2022-10-31T03:34:34;17.03;;;7.57;;
72325;SDS011;60278;47.980;18.780;2022-10-31T03:38:07;13.02;;;6.65;;
72325;SDS011;60278;47.980;18.780;2022-10-31T03:41:41;14.10;;;6.90;;
72325;SDS011;60278;47.980;18.780;2022-10-31T03:45:28;15.87;;;7.10;;
72325;SDS011;60278;47.980;18.780;2022-10-31T03:49:01;11.65;;;6.72;;
72325;SDS011;60278;47.980;18.780;2022-10-31T03:52:37;13.18;;;6.90;;
72325;SDS011;60278;47.980;18.780;2022-10-31T03:56:19;11.53;;;6.53;;
72325;SDS011;60278;47.980;18.780;2022-10-31T03:59:58;14.45;;;6.22;;
72325;SDS011;60278;47.980;18.780;2022-10-31T04:03:36;10.85;;;5.57;;
72325;SDS011;60278;47.980;18.780;2022-10-31T04:07:09;8.60;;;5.22;;
72325;SDS011;60278;47.980;18.780;2022-10-31T04:10:43;9.77;;;5.33;;
72325;SDS011;60278;47.980;18.780;2022-10-31T04:14:18;10.85;;;5.47;;
72325;SDS011;60278;47.980;18.780;2022-10-31T04:17:49;12.43;;;6.03;;
72325;SDS011;60278;47.980;18.780;2022-10-31T04:21:27;9.37;;;4.63;;
72325;SDS011;60278;47.980;18.780;2022-10-31T04:25:01;10.10;;;5.40;;
72325;SDS011;60278;47.980;18.780;2022-10-31T04:28:33;11.07;;;4.93;;
72325;SDS011;60278;47.980;18.780;2022-10-31T04:32:04;10.50;;;5.30;;
72325;SDS011;60278;47.980;18.780;2022-10-31T04:35:35;7.30;;;4.15;;
72325;SDS011;60278;47.980;18.780;2022-10-31T04:39:06;9.43;;;4.40;;
72325;SDS011;60278;47.980;18.780;2022-10-31T04:42:50;7.57;;;3.80;;
72325;SDS011;60278;47.980;18.780;2022-10-31T04:46:21;7.00;;;3.70;;
72325;SDS011;60278;47.980;18.780;2022-10-31T04:49:52;6.90;;;3.47;;
72325;SDS011;60278;47.980;18.780;2022-10-31T04:53:23;7.40;;;4.15;;
72325;SDS011;60278;47.980;18.780;2022-10-31T04:57:20;8.43;;;3.80;;
72325;SDS011;60278;47.980;18.780;2022-10-31T05:00:53;7.85;;;4.57;;
72325;SDS011;60278;47.980;18.780;2022-10-31T05:04:25;8.05;;;4.45;;
72325;SDS011;60278;47.980;18.780;2022-10-31T05:07:56;7.20;;;4.13;;
72325;SDS011;60278;47.980;18.780;2022-10-31T05:11:29;10.10;;;4.55;;
72325;SDS011;60278;47.980;18.780;2022-10-31T05:15:06;9.40;;;4.25;;
72325;SDS011;60278;47.980;18.780;2022-10-31T05:19:13;7.82;;;3.72;;
72325;SDS011;60278;47.980;18.780;2022-10-31T05:23:03;11.10;;;4.30;;
72325;SDS011;60278;47.980;18.780;2022-10-31T05:26:34;8.68;;;4.07;;
72325;SDS011;60278;47.980;18.780;2022-10-31T05:30:05;8.95;;;4.20;;
72325;SDS011;60278;47.980;18.780;2022-10-31T05:33:37;12.03;;;5.43;;
72325;SDS011;60278;47.980;18.780;2022-10-31T05:37:26;10.38;;;5.10;;
72325;SDS011;60278;47.980;18.780;2022-10-31T05:40:57;8.65;;;4.65;;
72325;SDS011;60278;47.980;18.780;2022-10-31T05:44:30;7.23;;;4.47;;
72325;SDS011;60278;47.980;18.780;2022-10-31T05:48:21;9.70;;;5.47;;
72325;SDS011;60278;47.980;18.780;2022-10-31T05:52:19;8.45;;;4.93;;
72325;SDS011;60278;47.980;18.780;2022-10-31T05:55:58;11.50;;;5.97;;
72325;SDS011;60278;47.980;18.780;2022-10-31T05:59:29;10.57;;;5.70;;
72325;SDS011;60278;47.980;18.780;2022-10-31T06:03:03;8.50;;;5.22;;
72325;SDS011;60278;47.980;18.780;2022-10-31T06:06:45;12.25;;;4.60;;
72325;SDS011;60278;47.980;18.780;2022-10-31T06:10:16;7.90;;;5.00;;
72325;SDS011;60278;47.980;18.780;2022-10-31T06:13:53;44.53;;;20.70;;
72325;SDS011;60278;47.980;18.780;2022-10-31T06:17:28;19.58;;;9.38;;
72325;SDS011;60278;47.980;18.780;2022-10-31T06:21:22;10.47;;;5.57;;
72325;SDS011;60278;47.980;18.780;2022-10-31T06:24:55;8.85;;;4.95;;
72325;SDS011;60278;47.980;18.780;2022-10-31T06:28:32;8.02;;;4.78;;
72325;SDS011;60278;47.980;18.780;2022-10-31T06:32:17;9.75;;;5.50;;
72325;SDS011;60278;47.980;18.780;2022-10-31T06:35:49;9.00;;;4.50;;
72325;SDS011;60278;47.980;18.780;2022-10-31T06:39:22;11.15;;;4.70;;
72325;SDS011;60278;47.980;18.780;2022-10-31T06:42:59;8.18;;;4.40;;
72325;SDS011;60278;47.980;18.780;2022-10-31T06:46:31;8.53;;;4.37;;
72325;SDS011;60278;47.980;18.780;2022-10-31T06:50:17;10.80;;;5.18;;
72325;SDS011;60278;47.980;18.780;2022-10-31T06:53:51;9.68;;;5.15;;
72325;SDS011;60278;47.980;18.780;2022-10-31T06:57:23;10.70;;;5.40;;
72325;SDS011;60278;47.980;18.780;2022-10-31T07:00:54;12.35;;;5.00;;
72325;SDS011;60278;47.980;18.780;2022-10-31T07:04:25;10.98;;;5.05;;
72325;SDS011;60278;47.980;18.780;2022-10-31T07:07:57;11.68;;;5.72;;
72325;SDS011;60278;47.980;18.780;2022-10-31T07:11:33;13.07;;;6.27;;
72325;SDS011;60278;47.980;18.780;2022-10-31T07:15:05;13.93;;;5.63;;
72325;SDS011;60278;47.980;18.780;2022-10-31T07:18:37;17.83;;;9.18;;
72325;SDS011;60278;47.980;18.780;2022-10-31T07:22:08;15.57;;;7.13;;
72325;SDS011;60278;47.980;18.780;2022-10-31T07:25:41;18.13;;;8.80;;
72325;SDS011;60278;47.980;18.780;2022-10-31T07:29:23;22.15;;;7.88;;
72325;SDS011;60278;47.980;18.780;2022-10-31T07:32:54;13.90;;;5.40;;
72325;SDS011;60278;47.980;18.780;2022-10-31T07:36:26;11.02;;;5.47;;
72325;SDS011;60278;47.980;18.780;2022-10-31T07:40:01;13.02;;;7.40;;
72325;SDS011;60278;47.980;18.780;2022-10-31T07:43:35;11.90;;;5.15;;
72325;SDS011;60278;47.980;18.780;2022-10-31T07:47:29;9.37;;;5.33;;
72325;SDS011;60278;47.980;18.780;2022-10-31T07:51:26;9.38;;;5.40;;
72325;SDS011;60278;47.980;18.780;2022-10-31T07:55:18;10.20;;;4.90;;
72325;SDS011;60278;47.980;18.780;2022-10-31T07:58:52;13.17;;;5.83;;
72325;SDS011;60278;47.980;18.780;2022-10-31T08:02:23;14.77;;;6.40;;
72325;SDS011;60278;47.980;18.780;2022-10-31T08:05:55;13.70;;;6.20;;
72325;SDS011;60278;47.980;18.780;2022-10-31T08:09:49;10.17;;;5.20;;
72325;SDS011;60278;47.980;18.780;2022-10-31T08:13:27;11.40;;;5.55;;
72325;SDS011;60278;47.980;18.780;2022-10-31T08:16:58;10.50;;;5.43;;
72325;SDS011;60278;47.980;18.780;2022-10-31T08:20:37;11.20;;;5.18;;
72325;SDS011;60278;47.980;18.780;2022-10-31T08:24:08;13.57;;;6.63;;
72325;SDS011;60278;47.980;18.780;2022-10-31T08:27:39;9.50;;;5.35;;
72325;SDS011;60278;47.980;18.780;2022-10-31T08:31:10;11.32;;;5.30;;
72325;SDS011;60278;47.980;18.780;2022-10-31T08:34:43;9.13;;;4.70;;
72325;SDS011;60278;47.980;18.780;2022-10-31T08:38:33;10.93;;;6.07;;
72325;SDS011;60278;47.980;18.780;2022-10-31T08:42:05;14.05;;;5.82;;
72325;SDS011;60278;47.980;18.780;2022-10-31T08:45:36;11.47;;;5.70;;
72325;SDS011;60278;47.980;18.780;2022-10-31T08:49:10;9.32;;;4.78;;
72325;SDS011;60278;47.980;18.780;2022-10-31T08:52:41;13.70;;;6.15;;
72325;SDS011;60278;47.980;18.780;2022-10-31T08:56:12;15.48;;;6.82;;
72325;SDS011;60278;47.980;18.780;2022-10-31T08:59:43;11.57;;;5.90;;
72325;SDS011;60278;47.980;18.780;2022-10-31T09:03:26;11.10;;;6.85;;
72325;SDS011;60278;47.980;18.780;2022-10-31T09:06:59;11.68;;;5.72;;
72325;SDS011;60278;47.980;18.780;2022-10-31T09:10:30;9.77;;;5.30;;
72325;SDS011;60278;47.980;18.780;2022-10-31T09:14:02;8.15;;;4.47;;
72325;SDS011;60278;47.980;18.780;2022-10-31T09:17:46;10.70;;;5.65;;
72325;SDS011;60278;47.980;18.780;2022-10-31T09:21:31;10.30;;;5.80;;
72325;SDS011;60278;47.980;18.780;2022-10-31T09:25:03;11.95;;;6.22;;
72325;SDS011;60278;47.980;18.780;2022-10-31T09:28:34;12.20;;;6.68;;
72325;SDS011;60278;47.980;18.780;2022-10-31T09:32:17;11.45;;;7.10;;
72325;SDS011;60278;47.980;18.780;2022-10-31T09:35:50;11.33;;;6.27;;
72325;SDS011;60278;47.980;18.780;2022-10-31T09:39:21;11.27;;;5.15;;
72325;SDS011;60278;47.980;18.780;2022-10-31T09:43:02;8.52;;;5.18;;
72325;SDS011;60278;47.980;18.780;2022-10-31T09:50:25;8.95;;;4.95;;
72325;SDS011;60278;47.980;18.780;2022-10-31T09:54:24;8.80;;;5.05;;
72325;SDS011;60278;47.980;18.780;2022-10-31T09:58:00;9.60;;;4.83;;
72325;SDS011;60278;47.980;18.780;2022-10-31T10:05:08;10.60;;;5.15;;
72325;SDS011;60278;47.980;18.780;2022-10-31T10:08:44;9.70;;;5.57;;
72325;SDS011;60278;47.980;18.780;2022-10-31T10:13:05;10.57;;;5.23;;
72325;SDS011;60278;47.980;18.780;2022-10-31T10:16:57;8.93;;;4.97;;
72325;SDS011;60278;47.980;18.780;2022-10-31T10:20:43;11.60;;;5.78;;
72325;SDS011;60278;47.980;18.780;2022-10-31T10:28:27;13.30;;;6.85;;
72325;SDS011;60278;47.980;18.780;2022-10-31T10:32:10;16.75;;;7.45;;
72325;SDS011;60278;47.980;18.780;2022-10-31T10:36:01;11.50;;;6.60;;
72325;SDS011;60278;47.980;18.780;2022-10-31T10:40:28;10.75;;;5.53;;
72325;SDS011;60278;47.980;18.780;2022-10-31T10:43:54;13.18;;;6.60;;
72325;SDS011;60278;47.980;18.780;2022-10-31T10:47:25;15.20;;;7.25;;
72325;SDS011;60278;47.980;18.780;2022-10-31T10:51:19;12.03;;;7.03;;
72325;SDS011;60278;47.980;18.780;2022-10-31T10:58:54;15.52;;;8.07;;
72325;SDS011;60278;47.980;18.780;2022-10-31T11:02:27;15.23;;;7.10;;
72325;SDS011;60278;47.980;18.780;2022-10-31T11:06:02;15.52;;;7.40;;
72325;SDS011;60278;47.980;18.780;2022-10-31T11:09:33;12.38;;;6.22;;
72325;SDS011;60278;47.980;18.780;2022-10-31T11:16:40;17.75;;;8.20;;
72325;SDS011;60278;47.980;18.780;2022-10-31T11:23:44;19.27;;;8.60;;
72325;SDS011;60278;47.980;18.780;2022-10-31T11:27:16;13.93;;;7.40;;
72325;SDS011;60278;47.980;18.780;2022-10-31T11:30:55;19.55;;;7.38;;
72325;SDS011;60278;47.980;18.780;2022-10-31T11:38:02;15.37;;;7.13;;
72325;SDS011;60278;47.980;18.780;2022-10-31T11:41:36;19.08;;;8.75;;
72325;SDS011;60278;47.980;18.780;2022-10-31T11:45:26;19.08;;;8.55;;
72325;SDS011;60278;47.980;18.780;2022-10-31T11:49:05;15.57;;;7.17;;
72325;SDS011;60278;47.980;18.780;2022-10-31T11:52:45;18.60;;;8.20;;
72325;SDS011;60278;47.980;18.780;2022-10-31T11:56:17;19.30;;;8.20;;
72325;SDS011;60278;47.980;18.780;2022-10-31T11:59:55;18.30;;;8.68;;
72325;SDS011;60278;47.980;18.780;2022-10-31T12:07:02;17.77;;;8.13;;
72325;SDS011;60278;47.980;18.780;2022-10-31T12:18:42;18.92;;;9.15;;
72325;SDS011;60278;47.980;18.780;2022-10-31T12:22:43;17.42;;;7.57;;
72325;SDS011;60278;47.980;18.780;2022-10-31T12:30:33;18.75;;;7.85;;
72325;SDS011;60278;47.980;18.780;2022-10-31T12:57:40;16.30;;;7.97;;
72325;SDS011;60278;47.980;18.780;2022-10-31T13:05:16;15.07;;;7.00;;
72325;SDS011;60278;47.980;18.780;2022-10-31T13:08:52;19.83;;;8.43;;
72325;SDS011;60278;47.980;18.780;2022-10-31T13:12:27;14.63;;;7.88;;
72325;SDS011;60278;47.980;18.780;2022-10-31T13:16:04;16.02;;;8.10;;
72325;SDS011;60278;47.980;18.780;2022-10-31T13:19:42;19.33;;;8.77;;
72325;SDS011;60278;47.980;18.780;2022-10-31T13:27:46;14.95;;;7.90;;
72325;SDS011;60278;47.980;18.780;2022-10-31T13:31:20;17.23;;;7.83;;
72325;SDS011;60278;47.980;18.780;2022-10-31T13:34:55;18.48;;;8.32;;
72325;SDS011;60278;47.980;18.780;2022-10-31T13:42:52;18.47;;;9.57;;
72325;SDS011;60278;47.980;18.780;2022-10-31T13:57:30;48.37;;;28.53;;
72325;SDS011;60278;47.980;18.780;2022-10-31T14:04:48;35.50;;;16.25;;
72325;SDS011;60278;47.980;18.780;2022-10-31T14:08:26;19.97;;;9.17;;
72325;SDS011;60278;47.980;18.780;2022-10-31T14:12:00;22.13;;;10.70;;
72325;SDS011;60278;47.980;18.780;2022-10-31T14:15:56;20.45;;;10.60;;
72325;SDS011;60278;47.980;18.780;2022-10-31T14:19:30;45.53;;;27.50;;
72325;SDS011;60278;47.980;18.780;2022-10-31T14:23:11;31.50;;;19.20;;
72325;SDS011;60278;47.980;18.780;2022-10-31T14:30:51;32.88;;;16.83;;
72325;SDS011;60278;47.980;18.780;2022-10-31T14:38:11;30.83;;;13.55;;
72325;SDS011;60278;47.980;18.780;2022-10-31T14:41:53;23.52;;;11.93;;
72325;SDS011;60278;47.980;18.780;2022-10-31T14:46:04;23.60;;;12.17;;
72325;SDS011;60278;47.980;18.780;2022-10-31T14:54:29;28.13;;;13.80;;
72325;SDS011;60278;47.980;18.780;2022-10-31T14:58:02;37.07;;;15.23;;
72325;SDS011;60278;47.980;18.780;2022-10-31T15:01:36;30.13;;;12.48;;
72325;SDS011;60278;47.980;18.780;2022-10-31T15:05:10;36.17;;;16.30;;
72325;SDS011;60278;47.980;18.780;2022-10-31T15:08:44;31.35;;;15.38;;
72325;SDS011;60278;47.980;18.780;2022-10-31T15:12:30;21.97;;;10.97;;
72325;SDS011;60278;47.980;18.780;2022-10-31T15:16:02;19.67;;;9.90;;
72325;SDS011;60278;47.980;18.780;2022-10-31T15:19:40;18.40;;;9.73;;
72325;SDS011;60278;47.980;18.780;2022-10-31T15:23:17;20.67;;;9.83;;
72325;SDS011;60278;47.980;18.780;2022-10-31T15:27:00;18.48;;;8.80;;
72325;SDS011;60278;47.980;18.780;2022-10-31T15:30:31;17.67;;;8.30;;
72325;SDS011;60278;47.980;18.780;2022-10-31T15:34:03;17.37;;;10.00;;
72325;SDS011;60278;47.980;18.780;2022-10-31T15:37:43;42.00;;;20.77;;
72325;SDS011;60278;47.980;18.780;2022-10-31T15:45:00;28.00;;;14.68;;
72325;SDS011;60278;47.980;18.780;2022-10-31T15:48:34;33.87;;;15.77;;
72325;SDS011;60278;47.980;18.780;2022-10-31T15:56:03;26.27;;;13.32;;
72325;SDS011;60278;47.980;18.780;2022-10-31T15:59:40;27.53;;;13.60;;
72325;SDS011;60278;47.980;18.780;2022-10-31T16:06:55;25.80;;;12.65;;
72325;SDS011;60278;47.980;18.780;2022-10-31T16:10:32;30.60;;;13.97;;
72325;SDS011;60278;47.980;18.780;2022-10-31T16:17:42;25.00;;;13.23;;
72325;SDS011;60278;47.980;18.780;2022-10-31T16:21:22;27.65;;;14.73;;
72325;SDS011;60278;47.980;18.780;2022-10-31T16:25:00;25.23;;;12.37;;
72325;SDS011;60278;47.980;18.780;2022-10-31T16:28:36;23.90;;;12.13;;
72325;SDS011;60278;47.980;18.780;2022-10-31T16:39:58;21.88;;;9.70;;
72325;SDS011;60278;47.980;18.780;2022-10-31T16:43:29;20.10;;;10.10;;
72325;SDS011;60278;47.980;18.780;2022-10-31T16:47:07;18.67;;;9.57;;
72325;SDS011;60278;47.980;18.780;2022-10-31T16:50:42;16.55;;;8.65;;
72325;SDS011;60278;47.980;18.780;2022-10-31T16:54:14;16.88;;;8.48;;
72325;SDS011;60278;47.980;18.780;2022-10-31T16:57:48;18.08;;;9.98;;
72325;SDS011;60278;47.980;18.780;2022-10-31T17:01:22;17.87;;;9.50;;
72325;SDS011;60278;47.980;18.780;2022-10-31T17:04:53;19.38;;;8.43;;
72325;SDS011;60278;47.980;18.780;2022-10-31T17:08:24;16.33;;;8.45;;
72325;SDS011;60278;47.980;18.780;2022-10-31T17:11:55;18.23;;;9.30;;
72325;SDS011;60278;47.980;18.780;2022-10-31T17:15:27;20.65;;;9.25;;
72325;SDS011;60278;47.980;18.780;2022-10-31T17:18:58;21.40;;;9.85;;
72325;SDS011;60278;47.980;18.780;2022-10-31T17:22:30;18.93;;;9.90;;
72325;SDS011;60278;47.980;18.780;2022-10-31T17:26:01;21.20;;;9.32;;
72325;SDS011;60278;47.980;18.780;2022-10-31T17:29:32;17.75;;;8.38;;
72325;SDS011;60278;47.980;18.780;2022-10-31T17:33:03;18.92;;;8.80;;
72325;SDS011;60278;47.980;18.780;2022-10-31T17:36:34;19.33;;;9.00;;
72325;SDS011;60278;47.980;18.780;2022-10-31T17:40:05;22.58;;;10.07;;
72325;SDS011;60278;47.980;18.780;2022-10-31T17:43:37;23.60;;;10.57;;
72325;SDS011;60278;47.980;18.780;2022-10-31T17:47:08;23.50;;;9.93;;
72325;SDS011;60278;47.980;18.780;2022-10-31T17:50:39;24.95;;;11.30;;
72325;SDS011;60278;47.980;18.780;2022-10-31T17:54:10;23.20;;;10.68;;
72325;SDS011;60278;47.980;18.780;2022-10-31T17:57:41;23.63;;;11.27;;
72325;SDS011;60278;47.980;18.780;2022-10-31T18:01:17;26.52;;;11.57;;
72325;SDS011;60278;47.980;18.780;2022-10-31T18:04:48;25.48;;;11.60;;
72325;SDS011;60278;47.980;18.780;2022-10-31T18:08:23;26.90;;;11.73;;
72325;SDS011;60278;47.980;18.780;2022-10-31T18:11:55;23.30;;;10.90;;
72325;SDS011;60278;47.980;18.780;2022-10-31T18:15:26;21.65;;;10.63;;
72325;SDS011;60278;47.980;18.780;2022-10-31T18:18:57;20.27;;;10.23;;
72325;SDS011;60278;47.980;18.780;2022-10-31T18:22:28;22.83;;;10.17;;
72325;SDS011;60278;47.980;18.780;2022-10-31T18:25:59;21.80;;;10.35;;
72325;SDS011;60278;47.980;18.780;2022-10-31T18:29:31;21.33;;;10.20;;
72325;SDS011;60278;47.980;18.780;2022-10-31T18:33:02;20.97;;;10.73;;
72325;SDS011;60278;47.980;18.780;2022-10-31T18:36:33;26.17;;;10.40;;
72325;SDS011;60278;47.980;18.780;2022-10-31T18:40:04;28.67;;;10.30;;
72325;SDS011;60278;47.980;18.780;2022-10-31T18:43:36;20.50;;;9.95;;
72325;SDS011;60278;47.980;18.780;2022-10-31T18:47:07;25.90;;;10.73;;
72325;SDS011;60278;47.980;18.780;2022-10-31T18:50:38;25.40;;;9.48;;
72325;SDS011;60278;47.980;18.780;2022-10-31T18:54:10;22.50;;;9.82;;
72325;SDS011;60278;47.980;18.780;2022-10-31T18:57:41;23.10;;;9.63;;
72325;SDS011;60278;47.980;18.780;2022-10-31T19:01:13;20.65;;;10.38;;
72325;SDS011;60278;47.980;18.780;2022-10-31T19:04:44;22.35;;;10.48;;
72325;SDS011;60278;47.980;18.780;2022-10-31T19:08:15;24.00;;;10.17;;
72325;SDS011;60278;47.980;18.780;2022-10-31T19:11:46;21.88;;;9.60;;
72325;SDS011;60278;47.980;18.780;2022-10-31T19:15:17;20.20;;;9.13;;
72325;SDS011;60278;47.980;18.780;2022-10-31T19:18:51;21.58;;;9.63;;
72325;SDS011;60278;47.980;18.780;2022-10-31T19:22:24;21.20;;;9.47;;
72325;SDS011;60278;47.980;18.780;2022-10-31T19:25:57;24.85;;;10.48;;
72325;SDS011;60278;47.980;18.780;2022-10-31T19:29:29;20.15;;;9.05;;
72325;SDS011;60278;47.980;18.780;2022-10-31T19:33:00;25.93;;;9.77;;
72325;SDS011;60278;47.980;18.780;2022-10-31T19:36:31;21.73;;;10.55;;
72325;SDS011;60278;47.980;18.780;2022-10-31T19:40:03;19.20;;;8.63;;
72325;SDS011;60278;47.980;18.780;2022-10-31T19:43:35;28.60;;;10.17;;
72325;SDS011;60278;47.980;18.780;2022-10-31T19:47:06;19.42;;;9.05;;
72325;SDS011;60278;47.980;18.780;2022-10-31T19:50:37;21.85;;;9.82;;
72325;SDS011;60278;47.980;18.780;2022-10-31T19:54:09;26.70;;;11.68;;
72325;SDS011;60278;47.980;18.780;2022-10-31T19:57:40;25.83;;;10.60;;
72325;SDS011;60278;47.980;18.780;2022-10-31T20:01:14;20.20;;;9.80;;
72325;SDS011;60278;47.980;18.780;2022-10-31T20:04:46;21.40;;;9.18;;
72325;SDS011;60278;47.980;18.780;2022-10-31T20:08:18;19.60;;;9.20;;
72325;SDS011;60278;47.980;18.780;2022-10-31T20:11:50;23.35;;;9.15;;
72325;SDS011;60278;47.980;18.780;2022-10-31T20:15:21;16.92;;;8.85;;
72325;SDS011;60278;47.980;18.780;2022-10-31T20:18:52;18.40;;;7.93;;
72325;SDS011;60278;47.980;18.780;2022-10-31T20:22:24;19.23;;;9.82;;
72325;SDS011;60278;47.980;18.780;2022-10-31T20:25:55;19.30;;;8.88;;
72325;SDS011;60278;47.980;18.780;2022-10-31T20:29:26;19.30;;;8.85;;
72325;SDS011;60278;47.980;18.780;2022-10-31T20:32:57;14.93;;;7.37;;
72325;SDS011;60278;47.980;18.780;2022-10-31T20:36:28;15.20;;;7.75;;
72325;SDS011;60278;47.980;18.780;2022-10-31T20:40:00;18.48;;;8.02;;
72325;SDS011;60278;47.980;18.780;2022-10-31T20:43:31;16.73;;;7.90;;
72325;SDS011;60278;47.980;18.780;2022-10-31T20:47:03;20.48;;;9.27;;
72325;SDS011;60278;47.980;18.780;2022-10-31T20:50:37;19.73;;;8.80;;
72325;SDS011;60278;47.980;18.780;2022-10-31T20:54:09;14.37;;;7.17;;
72325;SDS011;60278;47.980;18.780;2022-10-31T20:57:42;18.38;;;7.95;;
72325;SDS011;60278;47.980;18.780;2022-10-31T21:01:16;19.73;;;9.27;;
72325;SDS011;60278;47.980;18.780;2022-10-31T21:04:51;18.20;;;7.90;;
72325;SDS011;60278;47.980;18.780;2022-10-31T21:08:22;20.63;;;9.13;;
72325;SDS011;60278;47.980;18.780;2022-10-31T21:11:54;16.83;;;7.70;;
72325;SDS011;60278;47.980;18.780;2022-10-31T21:15:25;17.33;;;6.97;;
72325;SDS011;60278;47.980;18.780;2022-10-31T21:18:58;17.67;;;8.03;;
72325;SDS011;60278;47.980;18.780;2022-10-31T21:22:30;17.05;;;7.55;;
72325;SDS011;60278;47.980;18.780;2022-10-31T21:26:08;15.75;;;7.38;;
72325;SDS011;60278;47.980;18.780;2022-10-31T21:29:42;15.87;;;8.53;;
72325;SDS011;60278;47.980;18.780;2022-10-31T21:33:13;15.75;;;7.50;;
72325;SDS011;60278;47.980;18.780;2022-10-31T21:36:44;21.67;;;7.63;;
72325;SDS011;60278;47.980;18.780;2022-10-31T21:40:15;14.57;;;8.50;;
72325;SDS011;60278;47.980;18.780;2022-10-31T21:43:47;15.97;;;7.50;;
72325;SDS011;60278;47.980;18.780;2022-10-31T21:47:19;18.58;;;9.45;;
72325;SDS011;60278;47.980;18.780;2022-10-31T21:50:50;19.23;;;9.35;;
72325;SDS011;60278;47.980;18.780;2022-10-31T21:54:21;16.60;;;8.73;;
72325;SDS011;60278;47.980;18.780;2022-10-31T21:57:59;15.55;;;7.43;;
72325;SDS011;60278;47.980;18.780;2022-10-31T22:01:30;18.75;;;8.57;;
72325;SDS011;60278;47.980;18.780;2022-10-31T22:05:02;16.43;;;7.90;;
72325;SDS011;60278;47.980;18.780;2022-10-31T22:08:34;15.90;;;6.97;;
72325;SDS011;60278;47.980;18.780;2022-10-31T22:12:05;22.67;;;10.40;;
72325;SDS011;60278;47.980;18.780;2022-10-31T22:15:38;29.02;;;13.18;;
72325;SDS011;60278;47.980;18.780;2022-10-31T22:19:10;22.37;;;10.70;;
72325;SDS011;60278;47.980;18.780;2022-10-31T22:22:42;20.52;;;9.75;;
72325;SDS011;60278;47.980;18.780;2022-10-31T22:26:16;18.63;;;8.20;;
72325;SDS011;60278;47.980;18.780;2022-10-31T22:29:47;20.20;;;9.03;;
72325;SDS011;60278;47.980;18.780;2022-10-31T22:33:18;17.38;;;8.80;;
72325;SDS011;60278;47.980;18.780;2022-10-31T22:36:49;24.15;;;9.70;;
72325;SDS011;60278;47.980;18.780;2022-10-31T22:40:20;17.30;;;8.60;;
72325;SDS011;60278;47.980;18.780;2022-10-31T22:43:52;14.85;;;7.47;;
72325;SDS011;60278;47.980;18.780;2022-10-31T22:47:23;12.90;;;6.72;;
72325;SDS011;60278;47.980;18.780;2022-10-31T22:50:54;13.68;;;6.30;;
72325;SDS011;60278;47.980;18.780;2022-10-31T22:54:32;12.13;;;6.13;;
72325;SDS011;60278;47.980;18.780;2022-10-31T22:58:03;13.65;;;6.65;;
72325;SDS011;60278;47.980;18.780;2022-10-31T23:01:34;11.13;;;5.32;;
72325;SDS011;60278;47.980;18.780;2022-10-31T23:05:05;14.63;;;6.07;;
72325;SDS011;60278;47.980;18.780;2022-10-31T23:08:37;12.88;;;6.35;;
72325;SDS011;60278;47.980;18.780;2022-10-31T23:12:08;11.15;;;5.78;;
72325;SDS011;60278;47.980;18.780;2022-10-31T23:15:58;14.40;;;6.00;;
72325;SDS011;60278;47.980;18.780;2022-10-31T23:19:29;14.48;;;6.60;;
72325;SDS011;60278;47.980;18.780;2022-10-31T23:23:00;14.73;;;8.05;;
72325;SDS011;60278;47.980;18.780;2022-10-31T23:26:31;19.05;;;8.07;;
72325;SDS011;60278;47.980;18.780;2022-10-31T23:30:20;17.93;;;8.67;;
72325;SDS011;60278;47.980;18.780;2022-10-31T23:33:51;25.30;;;10.13;;
72325;SDS011;60278;47.980;18.780;2022-10-31T23:37:23;20.27;;;9.00;;
72325;SDS011;60278;47.980;18.780;2022-10-31T23:40:56;23.40;;;8.93;;